Time;durP1;ratioP1;P1;durP2;ratioP2;P2;SDS_P1;SDS_P2;PMS_P1;PMS_P2;Temp;Humidity;BMP_temperature;BMP_pressure;BME280_temperature;BME280_humidity;BME280_pressure;Samples;Min_cycle;Max_cycle;Signal;HPM_P1;HPM_P2
2023/04/13 00:01:44;;;;;;;3.53;1.63;;;7.10;99.90;;;;;;4975169;28;20059;-66
2023/04/13 00:04:12;;;;;;;4.15;1.90;;;7.00;99.90;;;;;;4982581;28;20060;-66
2023/04/13 00:06:41;;;;;;;3.72;1.60;;;7.00;99.90;;;;;;4991833;28;20247;-65
2023/04/13 00:09:07;;;;;;;3.20;1.33;;;6.90;99.90;;;;;;4976403;28;20464;-65
2023/04/13 00:11:33;;;;;;;3.78;1.70;;;6.80;99.90;;;;;;4976148;28;20093;-66
2023/04/13 00:14:00;;;;;;;2.58;1.52;;;6.80;99.90;;;;;;4974715;28;20154;-66
2023/04/13 00:16:28;;;;;;;2.65;1.50;;;6.70;99.90;;;;;;4992955;28;20436;-65
2023/04/13 00:18:55;;;;;;;2.85;2.03;;;6.70;99.90;;;;;;4994252;28;20073;-67
2023/04/13 00:21:22;;;;;;;3.70;1.60;;;6.70;99.90;;;;;;4994276;28;20097;-66
2023/04/13 00:23:48;;;;;;;2.60;1.52;;;6.70;99.90;;;;;;4989287;28;20125;-65
2023/04/13 00:26:15;;;;;;;4.22;1.60;;;6.60;99.90;;;;;;4994816;28;20188;-66
2023/04/13 00:28:41;;;;;;;3.90;2.00;;;6.70;99.90;;;;;;4977920;28;20085;-67
2023/04/13 00:31:08;;;;;;;2.88;1.70;;;6.60;99.90;;;;;;4978138;28;20072;-65
2023/04/13 00:33:34;;;;;;;3.60;1.80;;;6.50;99.90;;;;;;4994588;28;20535;-66
2023/04/13 00:36:01;;;;;;;3.20;1.70;;;6.50;99.90;;;;;;4993806;28;20046;-66
2023/04/13 00:38:28;;;;;;;2.95;1.67;;;6.60;99.90;;;;;;4995305;28;20050;-65
2023/04/13 00:40:54;;;;;;;2.95;2.00;;;6.60;99.90;;;;;;4994252;28;20047;-66
2023/04/13 00:43:21;;;;;;;3.30;1.55;;;6.50;99.90;;;;;;4995044;28;20440;-66
2023/04/13 00:45:47;;;;;;;2.45;1.55;;;6.50;99.90;;;;;;4993874;28;20089;-67
2023/04/13 00:48:14;;;;;;;2.88;1.48;;;6.50;99.90;;;;;;4995260;28;20052;-66
2023/04/13 00:50:41;;;;;;;2.85;1.50;;;6.50;99.90;;;;;;4978276;28;20108;-66
2023/04/13 00:53:11;;;;;;;2.95;1.67;;;6.60;99.90;;;;;;4994954;28;20082;-65
2023/04/13 00:55:40;;;;;;;3.60;1.73;;;6.50;99.90;;;;;;4994942;28;20472;-65
2023/04/13 00:58:07;;;;;;;3.28;1.73;;;6.50;99.90;;;;;;4978589;28;20100;-66
2023/04/13 01:00:37;;;;;;;2.67;2.42;;;6.60;99.90;;;;;;4995739;28;20455;-66
2023/04/13 01:03:04;;;;;;;2.95;1.92;;;6.60;99.90;;;;;;4962394;28;20061;-65
2023/04/13 01:05:38;;;;;;;3.70;1.92;;;6.50;99.90;;;;;;4977819;28;20427;-65
2023/04/13 01:08:35;;;;;;;1.95;1.50;;;6.60;99.90;;;;;;4978560;28;20425;-65
2023/04/13 01:11:12;;;;;;;3.05;1.85;;;6.50;99.90;;;;;;4950752;28;20092;-66
2023/04/13 01:13:47;;;;;;;3.72;1.70;;;6.50;99.90;;;;;;4981539;28;20046;-65
2023/04/13 01:16:21;;;;;;;4.03;2.10;;;6.50;99.90;;;;;;4994954;28;20085;-65
2023/04/13 01:18:51;;;;;;;3.10;1.73;;;6.50;99.90;;;;;;4996114;28;20395;-65
2023/04/13 01:21:23;;;;;;;3.08;1.70;;;6.50;99.90;;;;;;4995822;28;20074;-65
2023/04/13 01:24:20;;;;;;;4.28;2.00;;;6.50;99.90;;;;;;4996318;28;20464;-65
2023/04/13 01:27:11;;;;;;;4.35;2.10;;;6.50;99.90;;;;;;4995090;28;20460;-65
2023/04/13 01:29:38;;;;;;;4.38;1.70;;;6.50;99.90;;;;;;4994838;28;20086;-65
2023/04/13 01:32:07;;;;;;;2.92;1.83;;;6.50;99.90;;;;;;4994952;28;20046;-65
2023/04/13 01:34:34;;;;;;;3.90;1.98;;;6.60;99.90;;;;;;4993313;28;20046;-66
2023/04/13 01:37:03;;;;;;;2.97;1.80;;;6.60;99.90;;;;;;4995557;28;20091;-66
2023/04/13 01:39:33;;;;;;;4.28;1.73;;;6.60;99.90;;;;;;4994420;28;20061;-65
2023/04/13 01:42:00;;;;;;;2.88;1.60;;;6.50;99.90;;;;;;4994774;28;20050;-65
2023/04/13 01:44:31;;;;;;;2.58;1.50;;;6.50;99.90;;;;;;4994798;28;20085;-66
2023/04/13 01:47:14;;;;;;;3.97;1.85;;;6.50;99.90;;;;;;4993961;28;20086;-65
2023/04/13 01:50:05;;;;;;;4.30;2.10;;;6.50;99.90;;;;;;4993117;28;20485;-67
2023/04/13 01:52:32;;;;;;;2.90;1.50;;;6.40;99.90;;;;;;4993120;28;20409;-66
2023/04/13 01:55:00;;;;;;;2.50;1.65;;;6.50;99.90;;;;;;4978509;28;20513;-66
2023/04/13 01:57:30;;;;;;;3.50;1.83;;;6.50;99.90;;;;;;4976841;28;20424;-66
2023/04/13 01:59:57;;;;;;;2.42;1.67;;;6.50;99.90;;;;;;4994046;28;20042;-66
2023/04/13 02:02:23;;;;;;;4.25;1.88;;;6.50;99.90;;;;;;4976959;28;20450;-66
2023/04/13 02:04:50;;;;;;;3.10;1.63;;;6.40;99.90;;;;;;4989273;28;20097;-66
2023/04/13 02:07:16;;;;;;;3.33;1.73;;;6.50;99.90;;;;;;4994190;28;20486;-66
2023/04/13 02:09:42;;;;;;;3.05;1.75;;;6.40;99.90;;;;;;4993908;28;20050;-66
2023/04/13 02:12:09;;;;;;;3.10;1.85;;;6.50;99.90;;;;;;4993961;28;20133;-66
2023/04/13 02:14:36;;;;;;;2.72;2.08;;;6.60;99.90;;;;;;4993555;28;20092;-65
2023/04/13 02:17:02;;;;;;;3.90;2.13;;;6.50;99.90;;;;;;4977073;28;20486;-66
2023/04/13 02:19:28;;;;;;;4.32;1.73;;;6.50;99.90;;;;;;4977641;28;20054;-66
2023/04/13 02:21:55;;;;;;;3.30;1.90;;;6.50;99.90;;;;;;4994793;28;20129;-65
2023/04/13 02:24:21;;;;;;;4.95;1.75;;;6.50;99.90;;;;;;4994383;28;20101;-65
2023/04/13 02:26:48;;;;;;;2.95;2.13;;;6.40;99.90;;;;;;4994995;28;20065;-66
2023/04/13 02:29:14;;;;;;;2.03;1.77;;;6.50;99.90;;;;;;4995214;28;20061;-65
2023/04/13 02:31:42;;;;;;;2.90;1.80;;;6.50;99.90;;;;;;4995120;28;20050;-65
2023/04/13 02:34:09;;;;;;;2.75;1.83;;;6.50;99.90;;;;;;4961407;28;20442;-65
2023/04/13 02:36:37;;;;;;;3.00;1.83;;;6.50;99.90;;;;;;4977496;28;20082;-66
2023/04/13 02:39:03;;;;;;;3.35;2.25;;;6.50;99.90;;;;;;4977709;28;20050;-65
2023/04/13 02:41:35;;;;;;;2.53;1.80;;;6.50;99.90;;;;;;4977687;28;20478;-65
2023/04/13 02:44:02;;;;;;;2.83;2.20;;;6.40;99.90;;;;;;4977524;28;20082;-65
2023/04/13 02:46:28;;;;;;;3.35;1.88;;;6.50;99.90;;;;;;4961575;28;20522;-65
2023/04/13 02:48:55;;;;;;;4.05;1.95;;;6.50;99.90;;;;;;4977834;28;20100;-66
2023/04/13 02:51:21;;;;;;;3.78;2.03;;;6.50;99.90;;;;;;4977254;28;20062;-65
2023/04/13 02:53:48;;;;;;;3.67;2.20;;;6.50;99.90;;;;;;4994947;28;20073;-65
2023/04/13 02:56:14;;;;;;;2.17;1.73;;;6.50;99.90;;;;;;4977117;28;20054;-65
2023/04/13 02:58:41;;;;;;;3.63;2.08;;;6.40;99.90;;;;;;4994620;28;20109;-64
2023/04/13 03:01:07;;;;;;;3.53;2.40;;;6.50;99.90;;;;;;4977372;28;20423;-65
2023/04/13 03:03:33;;;;;;;3.00;1.73;;;6.50;99.90;;;;;;4973955;28;20470;-65
2023/04/13 03:06:00;;;;;;;3.35;1.88;;;6.50;99.90;;;;;;4975031;28;20050;-65
2023/04/13 03:08:26;;;;;;;2.95;2.00;;;6.40;99.90;;;;;;4974087;28;20093;-65
2023/04/13 03:10:53;;;;;;;3.60;2.03;;;6.30;99.90;;;;;;4975351;28;20082;-65
2023/04/13 03:13:20;;;;;;;2.50;1.90;;;6.40;99.90;;;;;;4978254;28;20358;-65
2023/04/13 03:15:46;;;;;;;5.03;1.90;;;6.30;99.90;;;;;;4993897;28;20089;-65
2023/04/13 03:18:13;;;;;;;2.88;1.63;;;6.40;99.90;;;;;;4994782;28;20058;-64
2023/04/13 03:20:39;;;;;;;2.85;1.83;;;6.30;99.90;;;;;;4994539;28;20489;-64
2023/04/13 03:23:05;;;;;;;3.33;1.83;;;6.30;99.90;;;;;;4977255;28;20143;-64
2023/04/13 03:25:32;;;;;;;2.42;1.83;;;6.40;99.90;;;;;;4994050;28;20057;-64
2023/04/13 03:27:58;;;;;;;4.03;1.92;;;6.40;99.90;;;;;;4977392;28;20086;-64
2023/04/13 03:30:24;;;;;;;3.78;1.85;;;6.30;99.90;;;;;;4997390;28;20046;-64
2023/04/13 03:32:51;;;;;;;2.60;1.83;;;6.40;99.90;;;;;;4981205;28;20494;-65
2023/04/13 03:35:17;;;;;;;2.80;2.45;;;6.40;99.90;;;;;;4978595;28;20385;-64
2023/04/13 03:37:43;;;;;;;4.03;1.98;;;6.40;99.90;;;;;;4978895;28;20051;-65
2023/04/13 03:40:10;;;;;;;4.05;2.20;;;6.40;99.90;;;;;;4978505;28;20462;-64
2023/04/13 03:42:37;;;;;;;3.95;2.13;;;6.50;99.90;;;;;;4977747;28;20057;-64
2023/04/13 03:45:04;;;;;;;3.05;2.10;;;6.50;99.90;;;;;;4978214;28;20533;-65
2023/04/13 03:47:30;;;;;;;3.88;1.90;;;6.50;99.90;;;;;;4978958;28;20086;-65
2023/04/13 03:49:57;;;;;;;3.95;3.03;;;6.50;99.90;;;;;;4977796;28;20050;-64
2023/04/13 03:52:23;;;;;;;3.20;2.67;;;6.50;99.90;;;;;;4978911;28;20097;-64
2023/04/13 03:54:50;;;;;;;4.18;2.53;;;6.60;99.90;;;;;;4978477;28;20093;-65
2023/04/13 03:57:16;;;;;;;3.75;3.10;;;6.50;99.90;;;;;;4978573;28;20082;-64
2023/04/13 03:59:47;;;;;;;4.65;2.10;;;6.60;99.90;;;;;;4977365;28;20359;-65
2023/04/13 04:02:20;;;;;;;3.40;2.58;;;6.50;99.90;;;;;;4978715;28;20073;-64
2023/04/13 04:04:47;;;;;;;4.30;2.67;;;6.60;99.90;;;;;;4976998;28;20459;-64
2023/04/13 04:07:13;;;;;;;3.97;2.67;;;6.50;99.90;;;;;;4978683;28;20132;-64
2023/04/13 04:09:41;;;;;;;7.43;3.35;;;6.40;99.90;;;;;;4978366;28;20130;-64
2023/04/13 04:12:07;;;;;;;4.20;2.63;;;6.50;99.90;;;;;;4978387;28;20078;-65
2023/04/13 04:14:33;;;;;;;4.18;2.50;;;6.40;99.90;;;;;;4984873;28;20050;-65
2023/04/13 04:17:00;;;;;;;3.83;2.72;;;6.20;99.90;;;;;;5016774;28;20108;-65
2023/04/13 04:19:26;;;;;;;4.40;3.08;;;6.20;99.90;;;;;;4999949;28;20081;-65
2023/04/13 04:21:52;;;;;;;3.97;2.55;;;6.20;99.90;;;;;;4999856;28;20363;-65
2023/04/13 04:24:22;;;;;;;4.43;3.08;;;6.20;99.90;;;;;;5017482;28;20064;-65
2023/04/13 04:26:48;;;;;;;5.10;2.95;;;6.20;99.90;;;;;;5017512;28;20384;-64
2023/04/13 04:29:16;;;;;;;3.58;3.20;;;6.00;99.90;;;;;;4999796;28;20135;-65
2023/04/13 04:31:43;;;;;;;3.60;2.65;;;6.00;99.90;;;;;;5016802;28;20077;-64
2023/04/13 04:34:10;;;;;;;6.40;2.85;;;5.90;99.90;;;;;;4989776;28;20065;-65
2023/04/13 04:36:40;;;;;;;3.50;2.50;;;6.00;99.90;;;;;;4997038;28;20086;-64
2023/04/13 04:39:08;;;;;;;3.97;2.78;;;6.00;99.90;;;;;;4997207;28;20058;-65
2023/04/13 04:41:36;;;;;;;5.85;2.92;;;5.90;99.90;;;;;;4978253;28;20054;-64
2023/04/13 04:44:06;;;;;;;4.40;2.88;;;5.70;99.90;;;;;;5004107;28;20077;-64
2023/04/13 04:46:32;;;;;;;4.43;2.70;;;5.90;99.90;;;;;;5016154;28;20092;-64
2023/04/13 04:48:59;;;;;;;5.78;2.95;;;5.70;99.90;;;;;;4999009;28;20050;-65
2023/04/13 04:51:26;;;;;;;5.40;3.10;;;5.70;99.90;;;;;;5015740;28;20077;-64
2023/04/13 04:53:53;;;;;;;4.25;3.03;;;5.70;99.90;;;;;;5008417;28;20084;-64
2023/04/13 04:56:20;;;;;;;7.70;3.10;;;5.70;99.90;;;;;;4996555;28;20050;-64
2023/04/13 04:58:46;;;;;;;8.32;3.65;;;5.80;99.90;;;;;;4995692;28;20482;-64
2023/04/13 05:01:25;;;;;;;6.00;3.38;;;5.90;99.90;;;;;;4978083;28;20045;-64
2023/04/13 05:03:52;;;;;;;5.55;3.20;;;5.80;99.90;;;;;;4996154;28;20050;-64
2023/04/13 05:06:18;;;;;;;5.68;3.67;;;5.90;99.90;;;;;;4995460;28;20120;-63
2023/04/13 05:08:45;;;;;;;6.85;3.30;;;5.90;99.90;;;;;;4995396;28;20397;-61
2023/04/13 05:11:11;;;;;;;4.95;3.17;;;5.80;99.90;;;;;;4995262;28;20465;-63
2023/04/13 05:13:37;;;;;;;5.22;3.03;;;5.90;99.90;;;;;;4995598;28;20105;-63
2023/04/13 05:16:04;;;;;;;4.18;3.05;;;5.90;99.90;;;;;;4989832;28;20093;-63
2023/04/13 05:18:32;;;;;;;5.13;3.47;;;6.00;99.90;;;;;;4995889;28;20414;-63
2023/04/13 05:20:58;;;;;;;6.13;3.00;;;6.00;99.90;;;;;;4994982;28;20081;-64
2023/04/13 05:23:25;;;;;;;5.82;2.92;;;6.10;99.90;;;;;;4994869;28;20076;-63
2023/04/13 05:25:52;;;;;;;6.88;2.95;;;6.00;99.90;;;;;;4995084;28;20086;-63
2023/04/13 05:28:20;;;;;;;6.25;3.03;;;6.10;99.90;;;;;;4995513;28;20054;-63
2023/04/13 05:30:47;;;;;;;4.25;3.00;;;6.20;99.90;;;;;;4978424;28;20046;-63
2023/04/13 05:33:15;;;;;;;7.53;3.13;;;6.30;99.90;;;;;;4977903;28;20088;-64
2023/04/13 05:35:42;;;;;;;5.95;2.85;;;6.30;99.90;;;;;;4978321;28;20054;-64
2023/04/13 05:38:09;;;;;;;7.05;3.33;;;6.30;99.90;;;;;;4996023;28;20125;-64
2023/04/13 05:40:35;;;;;;;6.47;2.80;;;6.50;99.90;;;;;;4995755;28;20361;-64
2023/04/13 05:43:02;;;;;;;5.07;3.45;;;6.60;99.90;;;;;;4995231;28;20046;-64
2023/04/13 05:45:28;;;;;;;6.13;3.33;;;6.70;99.90;;;;;;4995443;28;20050;-63
2023/04/13 05:47:55;;;;;;;7.68;4.40;;;6.90;99.90;;;;;;4993414;28;20054;-64
2023/04/13 05:50:21;;;;;;;6.88;3.38;;;6.90;99.90;;;;;;4979338;28;20158;-63
2023/04/13 05:52:47;;;;;;;7.80;3.30;;;7.10;99.90;;;;;;4976009;28;20065;-63
2023/04/13 05:55:14;;;;;;;7.50;4.03;;;7.10;99.90;;;;;;4993510;28;20465;-63
2023/04/13 05:57:40;;;;;;;7.88;3.05;;;6.90;99.90;;;;;;4994080;28;20419;-63
2023/04/13 06:00:09;;;;;;;5.38;3.95;;;6.90;99.90;;;;;;4994084;28;20085;-63
2023/04/13 06:02:37;;;;;;;8.10;3.25;;;7.00;99.90;;;;;;4993518;28;20074;-64
2023/04/13 06:05:04;;;;;;;5.50;3.38;;;7.70;99.90;;;;;;4994395;28;20129;-64
2023/04/13 06:07:31;;;;;;;6.25;3.63;;;8.60;99.90;;;;;;4994098;28;20402;-64
2023/04/13 06:09:59;;;;;;;6.57;3.53;;;9.40;99.90;;;;;;4994036;28;20390;-64
2023/04/13 06:12:25;;;;;;;5.85;2.55;;;10.10;99.90;;;;;;4994666;28;20050;-64
2023/04/13 06:14:52;;;;;;;7.72;3.28;;;10.30;99.90;;;;;;5000112;28;20096;-64
2023/04/13 06:17:18;;;;;;;5.82;3.10;;;10.60;99.90;;;;;;5013980;28;20077;-64
2023/04/13 06:19:44;;;;;;;6.32;2.78;;;10.10;99.90;;;;;;5013156;28;20058;-65
2023/04/13 06:22:11;;;;;;;6.13;2.83;;;9.40;99.90;;;;;;5011979;28;20042;-64
2023/04/13 06:24:37;;;;;;;5.57;2.35;;;9.00;99.90;;;;;;5000695;28;20125;-64
2023/04/13 06:27:03;;;;;;;7.03;2.63;;;8.70;99.90;;;;;;4993856;28;20060;-64
2023/04/13 06:29:30;;;;;;;6.20;2.58;;;8.50;99.90;;;;;;4993857;28;20050;-64
2023/04/13 06:31:57;;;;;;;6.85;2.40;;;8.20;99.90;;;;;;4976260;28;20050;-64
2023/04/13 06:34:24;;;;;;;5.43;3.25;;;8.20;99.90;;;;;;4978108;28;20093;-64
2023/04/13 06:36:50;;;;;;;8.38;2.97;;;8.10;99.90;;;;;;4977621;28;20046;-64
2023/04/13 06:39:16;;;;;;;5.72;3.03;;;8.00;99.90;;;;;;4977219;28;20434;-64
2023/04/13 06:41:47;;;;;;;6.28;2.75;;;7.90;99.90;;;;;;4975470;28;20182;-64
2023/04/13 06:44:25;;;;;;;5.68;3.15;;;7.80;99.90;;;;;;5001021;28;20073;-64
2023/04/13 06:46:52;;;;;;;8.25;2.60;;;7.70;99.90;;;;;;5012563;28;20078;-64
2023/04/13 06:49:18;;;;;;;7.82;3.30;;;7.80;99.90;;;;;;4973534;28;20054;-64
2023/04/13 06:51:44;;;;;;;5.22;2.75;;;7.70;99.90;;;;;;5006679;28;20576;-63
2023/04/13 06:54:10;;;;;;;3.92;2.60;;;7.60;99.90;;;;;;5002032;28;20079;-63
2023/04/13 06:56:37;;;;;;;6.53;2.55;;;7.60;99.90;;;;;;4993560;28;20086;-63
2023/04/13 06:59:03;;;;;;;5.05;2.70;;;7.70;99.90;;;;;;4975781;28;20054;-63
2023/04/13 07:01:30;;;;;;;6.13;2.55;;;7.80;99.90;;;;;;4993797;28;20081;-64
2023/04/13 07:03:57;;;;;;;6.50;2.65;;;7.80;99.90;;;;;;4988919;28;20088;-63
2023/04/13 07:06:23;;;;;;;5.03;2.45;;;7.80;99.90;;;;;;4975816;28;20077;-63
2023/04/13 07:08:50;;;;;;;6.50;3.20;;;7.80;99.90;;;;;;4984548;28;20364;-63
2023/04/13 07:11:16;;;;;;;6.43;2.90;;;7.80;99.90;;;;;;5012647;28;20089;-63
2023/04/13 07:13:42;;;;;;;8.88;2.90;;;7.70;99.90;;;;;;4991408;28;20462;-64
2023/04/13 07:16:10;;;;;;;7.28;3.33;;;7.80;99.90;;;;;;4972531;28;20061;-63
2023/04/13 07:18:37;;;;;;;5.40;2.95;;;7.70;99.90;;;;;;4973706;28;20082;-64
2023/04/13 07:21:04;;;;;;;8.88;3.30;;;7.70;99.90;;;;;;4972029;28;20065;-63
2023/04/13 07:23:32;;;;;;;5.43;2.45;;;7.70;99.90;;;;;;4972236;28;20057;-64
2023/04/13 07:25:58;;;;;;;4.45;2.30;;;7.80;99.90;;;;;;4972460;28;20097;-64
2023/04/13 07:28:26;;;;;;;4.57;2.33;;;7.70;99.90;;;;;;4972650;28;20066;-64
2023/04/13 07:30:52;;;;;;;6.40;2.80;;;7.80;99.90;;;;;;4972491;28;20055;-65
2023/04/13 07:33:18;;;;;;;5.05;2.63;;;7.80;99.90;;;;;;4972051;28;20058;-64
2023/04/13 07:35:45;;;;;;;4.72;3.10;;;7.90;99.90;;;;;;4971992;28;20066;-64
2023/04/13 07:38:11;;;;;;;4.80;2.30;;;8.00;99.90;;;;;;4972498;28;20378;-65
2023/04/13 07:40:37;;;;;;;3.83;2.50;;;8.10;99.90;;;;;;4972170;28;20047;-64
2023/04/13 07:43:04;;;;;;;6.47;2.40;;;8.10;99.90;;;;;;4972007;28;20097;-64
2023/04/13 07:45:30;;;;;;;5.50;2.33;;;8.20;99.90;;;;;;4972124;28;20567;-65
2023/04/13 07:47:57;;;;;;;5.78;2.20;;;8.20;99.90;;;;;;4972633;28;20098;-64
2023/04/13 07:50:23;;;;;;;4.10;2.38;;;8.20;99.90;;;;;;4972215;28;20061;-64
2023/04/13 07:52:50;;;;;;;7.05;2.40;;;8.10;99.90;;;;;;4972793;28;20089;-64
2023/04/13 07:55:16;;;;;;;4.15;2.03;;;8.10;99.90;;;;;;4972123;28;20047;-65
2023/04/13 07:57:43;;;;;;;3.50;1.88;;;8.30;99.90;;;;;;4972481;28;20050;-64
2023/04/13 08:00:11;;;;;;;4.82;2.10;;;8.30;99.90;;;;;;4956602;28;20079;-64
2023/04/13 08:02:37;;;;;;;3.55;1.90;;;8.40;99.90;;;;;;4957065;28;20089;-64
2023/04/13 08:05:03;;;;;;;4.25;2.10;;;8.50;99.90;;;;;;4972308;28;20094;-64
2023/04/13 08:07:30;;;;;;;4.10;2.17;;;8.50;99.90;;;;;;4972573;28;20459;-64
2023/04/13 08:09:56;;;;;;;5.20;2.50;;;8.40;99.90;;;;;;4972323;28;20095;-64
2023/04/13 08:12:23;;;;;;;4.80;2.03;;;8.40;99.90;;;;;;4971777;28;20493;-64
2023/04/13 08:14:49;;;;;;;5.53;2.55;;;8.40;99.90;;;;;;4972430;28;20078;-64
2023/04/13 08:17:15;;;;;;;6.25;2.40;;;8.50;99.90;;;;;;4976651;28;20054;-64
2023/04/13 08:19:42;;;;;;;7.05;2.45;;;8.60;99.90;;;;;;4975445;28;20043;-64
2023/04/13 08:22:10;;;;;;;3.70;2.00;;;8.70;99.90;;;;;;4975078;28;20443;-64
2023/04/13 08:24:36;;;;;;;4.38;1.90;;;8.70;99.90;;;;;;4976003;28;20086;-63
2023/04/13 08:27:02;;;;;;;6.15;2.25;;;8.70;99.90;;;;;;4976564;28;20078;-63
2023/04/13 08:29:29;;;;;;;3.88;1.85;;;8.70;99.90;;;;;;4975875;28;20059;-63
2023/04/13 08:31:56;;;;;;;3.88;1.77;;;8.60;99.90;;;;;;4975054;28;20057;-63
2023/04/13 08:34:23;;;;;;;4.40;1.92;;;8.60;99.90;;;;;;4955580;29;20055;-64
2023/04/13 08:36:49;;;;;;;6.00;1.83;;;8.60;99.90;;;;;;4972156;28;20083;-64
2023/04/13 08:39:15;;;;;;;5.18;2.00;;;8.50;99.90;;;;;;4955371;29;20055;-64
2023/04/13 08:41:46;;;;;;;3.92;2.00;;;8.60;99.90;;;;;;4956417;29;20078;-64
2023/04/13 08:44:13;;;;;;;5.15;2.42;;;8.70;99.90;;;;;;4963496;28;20051;-64
2023/04/13 08:46:43;;;;;;;5.10;2.30;;;8.90;99.90;;;;;;4975061;28;20081;-64
2023/04/13 08:49:11;;;;;;;3.33;2.05;;;9.10;99.90;;;;;;4975603;28;20419;-65
2023/04/13 08:51:37;;;;;;;5.70;2.17;;;9.40;99.90;;;;;;4974040;28;20108;-65
2023/04/13 08:54:05;;;;;;;5.40;2.00;;;9.30;99.90;;;;;;4975752;28;20149;-64
2023/04/13 08:56:33;;;;;;;3.25;1.77;;;9.30;99.90;;;;;;4975871;28;20062;-63
2023/04/13 08:59:05;;;;;;;6.95;1.92;;;9.30;99.90;;;;;;4974731;28;20054;-64
2023/04/13 09:01:33;;;;;;;2.63;1.00;;;9.10;99.90;;;;;;4975232;28;20081;-63
2023/04/13 09:04:11;;;;;;;1.73;1.35;;;8.60;99.90;;;;;;4975114;28;20047;-64
2023/04/13 09:06:39;;;;;;;;;;;8.20;99.90;;;;;;4992809;28;20050;-55
2023/04/13 09:09:09;;;;;;;3.58;1.42;;;7.90;99.90;;;;;;4975749;28;20371;-62
2023/04/13 09:11:36;;;;;;;3.63;1.60;;;7.90;99.90;;;;;;4974967;28;20050;-63
2023/04/13 09:14:02;;;;;;;4.28;1.38;;;7.80;99.90;;;;;;4975290;28;20090;-63
2023/04/13 09:16:36;;;;;;;2.90;1.13;;;7.80;99.90;;;;;;4994781;28;20120;-62
2023/04/13 09:19:03;;;;;;;3.33;1.30;;;7.90;99.90;;;;;;4995195;28;20081;-62
2023/04/13 09:21:41;;;;;;;3.47;1.35;;;7.90;99.90;;;;;;4995329;28;20134;-61
2023/04/13 09:24:08;;;;;;;3.50;2.00;;;7.90;99.90;;;;;;4994982;28;20051;-62
2023/04/13 09:26:46;;;;;;;2.97;1.63;;;8.00;99.90;;;;;;4994887;28;20056;-62
2023/04/13 09:29:15;;;;;;;2.95;1.45;;;8.30;99.90;;;;;;4996322;28;20082;-63
2023/04/13 09:31:42;;;;;;;6.32;1.63;;;8.50;99.90;;;;;;4979220;28;20058;-62
2023/04/13 09:34:09;;;;;;;5.25;1.92;;;8.70;99.90;;;;;;4988807;28;20061;-62
2023/04/13 09:36:36;;;;;;;5.05;1.90;;;8.90;99.90;;;;;;4976595;28;20184;-62
2023/04/13 09:39:04;;;;;;;3.97;1.73;;;9.30;99.90;;;;;;4976755;28;20116;-62
2023/04/13 09:41:35;;;;;;;4.10;1.67;;;9.40;99.90;;;;;;4976326;28;20082;-58
2023/04/13 09:44:14;;;;;;;6.45;2.40;;;9.60;99.90;;;;;;4983013;28;20092;-61
2023/04/13 09:46:41;;;;;;;10.18;2.70;;;10.00;99.90;;;;;;4995419;28;20447;-64
2023/04/13 09:49:07;;;;;;;4.35;1.65;;;10.00;99.90;;;;;;4994328;28;20065;-63
2023/04/13 09:51:38;;;;;;;9.00;2.17;;;10.10;99.90;;;;;;4994088;28;20062;-63
2023/04/13 09:54:05;;;;;;;5.45;2.45;;;10.10;99.90;;;;;;4988569;28;20455;-65
2023/04/13 09:56:47;;;;;;;7.55;1.95;;;10.00;99.90;;;;;;4975019;28;20474;-64
2023/04/13 09:59:13;;;;;;;4.22;2.03;;;9.70;99.90;;;;;;4976872;28;20078;-64
2023/04/13 10:01:40;;;;;;;9.30;2.05;;;9.50;99.90;;;;;;4993895;28;20454;-64
2023/04/13 10:04:07;;;;;;;7.72;2.40;;;9.30;99.90;;;;;;4988399;28;20051;-64
2023/04/13 10:06:42;;;;;;;8.88;3.05;;;9.40;99.90;;;;;;4974616;28;20149;-63
2023/04/13 10:09:09;;;;;;;9.93;2.67;;;9.60;99.90;;;;;;4974697;28;20065;-64
2023/04/13 10:11:40;;;;;;;11.57;3.50;;;9.70;99.90;;;;;;4974674;28;20422;-64
2023/04/13 10:14:13;;;;;;;8.30;2.55;;;9.80;99.90;;;;;;4975346;28;20405;-64
2023/04/13 10:16:54;;;;;;;7.65;2.88;;;10.00;99.90;;;;;;4975069;28;20046;-64
2023/04/13 10:19:23;;;;;;;10.82;3.28;;;10.00;99.90;;;;;;4974776;28;20050;-64
2023/04/13 10:21:51;;;;;;;12.90;4.63;;;10.20;99.90;;;;;;4974124;28;20055;-63
2023/04/13 10:24:18;;;;;;;8.65;3.13;;;10.20;99.90;;;;;;4976270;28;20122;-63
2023/04/13 10:26:45;;;;;;;12.35;3.10;;;10.20;99.90;;;;;;4974419;28;20062;-64
2023/04/13 10:29:13;;;;;;;8.13;2.38;;;10.30;99.90;;;;;;4974205;28;20390;-63
2023/04/13 10:31:45;;;;;;;8.40;2.28;;;10.30;99.90;;;;;;4973982;28;20142;-63
2023/04/13 10:34:23;;;;;;;8.77;2.35;;;10.40;99.90;;;;;;4956263;28;20059;-63
2023/04/13 10:36:53;;;;;;;11.48;3.08;;;10.50;99.90;;;;;;4974551;28;20065;-63
2023/04/13 10:39:23;;;;;;;9.45;2.70;;;10.60;99.90;;;;;;4974138;28;20459;-63
2023/04/13 10:42:06;;;;;;;13.43;2.63;;;10.80;99.90;;;;;;4973622;28;20874;-63
2023/04/13 10:44:50;;;;;;;10.35;2.30;;;10.90;99.90;;;;;;4965066;28;20061;-63
2023/04/13 10:47:19;;;;;;;12.93;2.88;;;11.00;99.90;;;;;;4954899;29;20058;-64
2023/04/13 10:49:47;;;;;;;9.38;3.20;;;11.00;99.90;;;;;;4954723;29;20094;-63
2023/04/13 10:52:14;;;;;;;9.70;2.50;;;11.20;99.90;;;;;;4954391;29;20436;-63
2023/04/13 10:54:42;;;;;;;8.88;2.90;;;11.10;99.90;;;;;;4955799;28;20051;-63
2023/04/13 10:57:10;;;;;;;13.88;3.53;;;11.20;99.90;;;;;;4954749;29;20051;-64
2023/04/13 10:59:42;;;;;;;8.85;2.35;;;11.10;99.90;;;;;;4959875;28;20138;-63
2023/04/13 11:02:11;;;;;;;8.90;2.38;;;11.00;99.90;;;;;;4956619;28;20400;-63
2023/04/13 11:04:40;;;;;;;7.63;2.33;;;11.00;99.90;;;;;;4972831;28;20043;-64
2023/04/13 11:07:10;;;;;;;9.45;3.15;;;10.90;99.90;;;;;;4977341;28;20104;-63
2023/04/13 11:09:40;;;;;;;11.18;3.38;;;10.90;99.90;;;;;;4993805;28;20485;-63
2023/04/13 11:12:09;;;;;;;6.07;2.50;;;11.00;99.90;;;;;;4993429;28;20061;-63
2023/04/13 11:14:37;;;;;;;9.85;2.60;;;10.80;99.90;;;;;;4966091;28;20090;-64
2023/04/13 11:17:05;;;;;;;7.70;2.65;;;10.90;99.90;;;;;;4974648;28;20059;-64
2023/04/13 11:19:32;;;;;;;6.95;2.15;;;11.00;99.90;;;;;;4974637;28;20130;-64
2023/04/13 11:22:00;;;;;;;8.55;2.33;;;11.00;99.90;;;;;;4974762;28;20057;-64
2023/04/13 11:24:32;;;;;;;6.70;2.20;;;11.10;99.90;;;;;;4974075;28;20047;-64
2023/04/13 11:26:59;;;;;;;9.93;2.55;;;11.30;99.90;;;;;;4974440;28;20494;-63
2023/04/13 11:29:26;;;;;;;11.43;2.20;;;11.40;99.90;;;;;;4974620;28;20386;-63
2023/04/13 11:31:52;;;;;;;9.43;2.90;;;11.60;99.90;;;;;;4973998;28;20054;-65
2023/04/13 11:34:27;;;;;;;13.65;2.60;;;11.50;99.90;;;;;;4972322;28;20382;-65
2023/04/13 11:37:01;;;;;;;14.73;3.88;;;11.30;99.90;;;;;;4972763;28;20089;-65
2023/04/13 11:39:28;;;;;;;12.65;4.50;;;11.10;99.90;;;;;;4971289;28;20125;-65
2023/04/13 11:41:55;;;;;;;13.45;4.80;;;11.00;99.90;;;;;;4973175;28;20046;-65
2023/04/13 11:44:23;;;;;;;11.82;3.85;;;11.00;99.90;;;;;;4972796;28;20506;-64
2023/04/13 11:46:52;;;;;;;12.35;4.05;;;11.10;99.90;;;;;;4973567;28;20074;-65
2023/04/13 11:49:19;;;;;;;7.97;3.92;;;11.10;99.90;;;;;;4972195;28;20069;-65
2023/04/13 11:51:46;;;;;;;10.73;2.95;;;11.10;99.90;;;;;;4974738;28;20058;-65
2023/04/13 11:54:12;;;;;;;8.30;2.72;;;11.10;99.90;;;;;;4975010;28;20082;-64
2023/04/13 11:56:39;;;;;;;8.15;2.55;;;11.00;99.90;;;;;;4976324;28;20126;-64
2023/04/13 11:59:07;;;;;;;8.52;2.92;;;11.10;99.90;;;;;;4977761;28;20130;-64
2023/04/13 12:01:33;;;;;;;6.43;1.70;;;11.00;99.90;;;;;;4976108;28;20054;-65
2023/04/13 12:04:04;;;;;;;8.07;2.20;;;11.10;99.90;;;;;;4976892;28;20042;-64
2023/04/13 12:06:32;;;;;;;8.60;2.63;;;11.20;99.90;;;;;;4977154;28;20090;-64
2023/04/13 12:09:04;;;;;;;10.73;2.42;;;11.40;99.90;;;;;;4976942;28;20047;-64
2023/04/13 12:11:41;;;;;;;9.60;2.22;;;11.50;99.90;;;;;;4976241;28;20055;-64
2023/04/13 12:14:07;;;;;;;4.85;1.73;;;11.50;99.90;;;;;;4976171;28;20426;-65
2023/04/13 12:16:33;;;;;;;9.50;2.88;;;11.40;99.90;;;;;;4975058;28;20482;-64
2023/04/13 12:19:06;;;;;;;12.35;3.22;;;11.50;99.90;;;;;;4975273;28;20248;-65
2023/04/13 12:21:32;;;;;;;9.45;2.72;;;11.40;99.90;;;;;;4975370;28;20054;-65
2023/04/13 12:24:00;;;;;;;14.45;3.38;;;11.40;99.90;;;;;;4975617;28;20060;-65
2023/04/13 12:26:31;;;;;;;12.30;3.90;;;11.30;99.90;;;;;;4975774;28;20078;-64
2023/04/13 12:28:59;;;;;;;10.40;3.08;;;11.40;99.90;;;;;;4975261;28;20082;-65
2023/04/13 12:31:35;;;;;;;12.50;3.65;;;11.40;99.90;;;;;;4975873;28;20444;-65
2023/04/13 12:34:06;;;;;;;14.10;3.58;;;11.30;99.90;;;;;;4975271;28;20046;-64
2023/04/13 12:36:34;;;;;;;7.07;2.80;;;11.40;99.90;;;;;;4975972;28;20047;-65
2023/04/13 12:39:02;;;;;;;7.20;2.45;;;11.40;99.90;;;;;;4975291;28;20043;-65
2023/04/13 12:41:29;;;;;;;7.35;2.40;;;11.40;99.90;;;;;;4976192;28;20053;-65
2023/04/13 12:43:55;;;;;;;8.27;2.03;;;11.60;99.90;;;;;;4975508;28;20057;-65
2023/04/13 12:46:21;;;;;;;7.22;2.30;;;11.70;99.90;;;;;;4975635;28;20145;-65
2023/04/13 12:48:47;;;;;;;10.07;2.38;;;11.80;99.90;;;;;;4975399;28;20371;-64
2023/04/13 12:51:14;;;;;;;8.32;2.28;;;11.90;99.90;;;;;;4974987;28;20057;-64
2023/04/13 12:53:40;;;;;;;8.02;2.40;;;11.90;99.90;;;;;;4974694;28;20111;-63
2023/04/13 12:56:07;;;;;;;8.48;2.38;;;12.00;99.90;;;;;;4974261;28;20090;-65
2023/04/13 12:58:34;;;;;;;10.90;2.50;;;11.90;99.90;;;;;;4974770;28;20062;-65